SQC weather

Southern Cross Airport
Western Australia, Australia

Public forecast

Using degrees Celsius for public forecast. Weather courtesy of forecast.io.

METAR (pilot weather report)

Closest report is Kalgoorlie Boulder Airport, 111.5 nm (206.5 km) ENE. Retrieved 2019/04/23 21:30 UTC (25 minutes ago):

YPKG 232130Z AUTO 15005KT 9999 // NCD 11/05 Q1027 RF00.0/000.0

TAF (pilot weather forecast)

Closest forecast is Kalgoorlie Boulder Airport, 111.5 nm (206.5 km) ENE. Retrieved 2019/04/23 18:00 UTC (4 hours ago):

TAF YPKG 231703Z 2318/2418 VRB03KT CAVOK FM240000 10008KT CAVOK